sensor_id;sensor_type;location;lat;lon;timestamp;P1;durP1;ratioP1;P2;durP2;ratioP2
47513;SDS011;33951;51.988;5.910;2023-04-08T04:01:25;11.05;;;9.07;;
47513;SDS011;33951;51.988;5.910;2023-04-08T04:03:50;12.25;;;10.07;;
47513;SDS011;33951;51.988;5.910;2023-04-08T04:06:19;9.63;;;8.57;;
47513;SDS011;33951;51.988;5.910;2023-04-08T04:08:45;11.07;;;8.95;;
47513;SDS011;33951;51.988;5.910;2023-04-08T04:11:16;12.25;;;10.60;;
47513;SDS011;33951;51.988;5.910;2023-04-08T04:30:43;14.30;;;11.82;;
47513;SDS011;33951;51.988;5.910;2023-04-08T04:33:43;13.82;;;11.82;;
47513;SDS011;33951;51.988;5.910;2023-04-08T04:36:38;15.15;;;12.43;;
47513;SDS011;33951;51.988;5.910;2023-04-08T04:42:54;16.95;;;13.07;;
47513;SDS011;33951;51.988;5.910;2023-04-08T04:45:54;18.60;;;14.95;;
47513;SDS011;33951;51.988;5.910;2023-04-08T04:48:23;20.38;;;17.05;;
47513;SDS011;33951;51.988;5.910;2023-04-08T04:51:34;27.42;;;20.88;;
47513;SDS011;33951;51.988;5.910;2023-04-08T04:57:23;28.75;;;21.60;;
47513;SDS011;33951;51.988;5.910;2023-04-08T05:00:18;37.58;;;27.00;;
47513;SDS011;33951;51.988;5.910;2023-04-08T05:03:30;28.90;;;22.77;;
47513;SDS011;33951;51.988;5.910;2023-04-08T05:06:10;30.55;;;22.63;;
47513;SDS011;33951;51.988;5.910;2023-04-08T05:28:52;20.88;;;17.17;;
47513;SDS011;33951;51.988;5.910;2023-04-08T05:31:25;25.25;;;17.30;;
47513;SDS011;33951;51.988;5.910;2023-04-08T05:33:53;20.15;;;16.65;;
47513;SDS011;33951;51.988;5.910;2023-04-08T05:36:47;18.77;;;14.93;;
47513;SDS011;33951;51.988;5.910;2023-04-08T05:39:26;20.25;;;14.82;;
47513;SDS011;33951;51.988;5.910;2023-04-08T05:41:57;19.35;;;15.75;;
47513;SDS011;33951;51.988;5.910;2023-04-08T05:44:36;22.52;;;16.33;;
47513;SDS011;33951;51.988;5.910;2023-04-08T05:47:15;22.08;;;17.92;;
47513;SDS011;33951;51.988;5.910;2023-04-08T05:49:41;25.65;;;19.52;;
47513;SDS011;33951;51.988;5.910;2023-04-08T05:52:14;22.33;;;16.30;;
47513;SDS011;33951;51.988;5.910;2023-04-08T05:54:43;23.92;;;17.42;;
47513;SDS011;33951;51.988;5.910;2023-04-08T05:57:18;19.05;;;14.63;;
47513;SDS011;33951;51.988;5.910;2023-04-08T05:59:53;19.05;;;15.20;;
47513;SDS011;33951;51.988;5.910;2023-04-08T06:02:34;20.63;;;15.70;;
47513;SDS011;33951;51.988;5.910;2023-04-08T06:05:39;22.23;;;17.17;;
47513;SDS011;33951;51.988;5.910;2023-04-08T06:08:16;24.67;;;19.65;;
47513;SDS011;33951;51.988;5.910;2023-04-08T06:11:07;23.95;;;18.35;;
47513;SDS011;33951;51.988;5.910;2023-04-08T06:13:40;25.10;;;18.88;;
47513;SDS011;33951;51.988;5.910;2023-04-08T06:16:14;24.60;;;19.48;;
47513;SDS011;33951;51.988;5.910;2023-04-08T06:18:43;30.80;;;19.90;;
47513;SDS011;33951;51.988;5.910;2023-04-08T06:21:09;31.05;;;20.58;;
47513;SDS011;33951;51.988;5.910;2023-04-08T06:23:35;27.77;;;20.27;;
47513;SDS011;33951;51.988;5.910;2023-04-08T06:26:30;25.00;;;19.38;;
47513;SDS011;33951;51.988;5.910;2023-04-08T06:29:12;25.25;;;20.52;;
47513;SDS011;33951;51.988;5.910;2023-04-08T06:31:42;29.67;;;21.77;;
47513;SDS011;33951;51.988;5.910;2023-04-08T06:34:21;29.40;;;22.70;;
47513;SDS011;33951;51.988;5.910;2023-04-08T06:37:09;22.75;;;18.88;;
47513;SDS011;33951;51.988;5.910;2023-04-08T06:39:58;26.35;;;17.88;;
47513;SDS011;33951;51.988;5.910;2023-04-08T06:42:25;30.75;;;22.42;;
47513;SDS011;33951;51.988;5.910;2023-04-08T06:44:56;26.33;;;19.70;;
47513;SDS011;33951;51.988;5.910;2023-04-08T06:47:30;34.47;;;25.65;;
47513;SDS011;33951;51.988;5.910;2023-04-08T06:50:21;23.08;;;17.83;;
47513;SDS011;33951;51.988;5.910;2023-04-08T06:52:54;25.30;;;18.25;;
47513;SDS011;33951;51.988;5.910;2023-04-08T06:55:42;22.75;;;17.05;;
47513;SDS011;33951;51.988;5.910;2023-04-08T06:58:35;27.60;;;21.23;;
47513;SDS011;33951;51.988;5.910;2023-04-08T07:01:21;23.30;;;18.80;;
47513;SDS011;33951;51.988;5.910;2023-04-08T07:04:07;28.52;;;19.60;;
47513;SDS011;33951;51.988;5.910;2023-04-08T07:06:38;21.92;;;17.48;;
47513;SDS011;33951;51.988;5.910;2023-04-08T07:09:15;25.00;;;18.17;;
47513;SDS011;33951;51.988;5.910;2023-04-08T07:11:45;21.42;;;17.13;;
47513;SDS011;33951;51.988;5.910;2023-04-08T07:14:33;24.08;;;19.13;;
47513;SDS011;33951;51.988;5.910;2023-04-08T07:17:01;21.35;;;18.40;;
47513;SDS011;33951;51.988;5.910;2023-04-08T07:19:48;26.70;;;18.52;;
47513;SDS011;33951;51.988;5.910;2023-04-08T07:22:22;29.15;;;20.23;;
47513;SDS011;33951;51.988;5.910;2023-04-08T07:24:50;29.58;;;18.55;;
47513;SDS011;33951;51.988;5.910;2023-04-08T07:27:24;32.78;;;23.45;;
47513;SDS011;33951;51.988;5.910;2023-04-08T07:30:00;25.48;;;19.30;;
47513;SDS011;33951;51.988;5.910;2023-04-08T07:32:38;21.48;;;15.48;;
47513;SDS011;33951;51.988;5.910;2023-04-08T07:35:20;43.17;;;28.58;;
47513;SDS011;33951;51.988;5.910;2023-04-08T07:40:37;20.67;;;16.38;;
47513;SDS011;33951;51.988;5.910;2023-04-08T07:43:05;22.23;;;16.42;;
47513;SDS011;33951;51.988;5.910;2023-04-08T07:45:35;84.85;;;50.80;;
47513;SDS011;33951;51.988;5.910;2023-04-08T07:48:17;24.42;;;18.65;;
47513;SDS011;33951;51.988;5.910;2023-04-08T07:50:45;20.33;;;15.43;;
47513;SDS011;33951;51.988;5.910;2023-04-08T07:53:16;19.75;;;14.85;;
47513;SDS011;33951;51.988;5.910;2023-04-08T07:55:41;18.38;;;13.98;;
47513;SDS011;33951;51.988;5.910;2023-04-08T07:58:30;15.68;;;13.88;;
47513;SDS011;33951;51.988;5.910;2023-04-08T08:01:18;20.08;;;13.70;;
47513;SDS011;33951;51.988;5.910;2023-04-08T08:04:14;14.82;;;12.88;;
47513;SDS011;33951;51.988;5.910;2023-04-08T08:06:45;16.67;;;13.65;;
47513;SDS011;33951;51.988;5.910;2023-04-08T08:09:33;15.40;;;12.20;;
47513;SDS011;33951;51.988;5.910;2023-04-08T08:12:02;17.23;;;13.25;;
47513;SDS011;33951;51.988;5.910;2023-04-08T08:14:30;15.95;;;11.98;;
47513;SDS011;33951;51.988;5.910;2023-04-08T08:17:08;14.98;;;12.57;;
47513;SDS011;33951;51.988;5.910;2023-04-08T08:20:03;15.68;;;12.52;;
47513;SDS011;33951;51.988;5.910;2023-04-08T08:22:38;16.27;;;11.85;;
47513;SDS011;33951;51.988;5.910;2023-04-08T08:25:05;15.45;;;12.40;;
47513;SDS011;33951;51.988;5.910;2023-04-08T08:27:36;13.60;;;11.73;;
47513;SDS011;33951;51.988;5.910;2023-04-08T08:30:04;16.73;;;13.48;;
47513;SDS011;33951;51.988;5.910;2023-04-08T08:32:42;28.38;;;13.75;;
47513;SDS011;33951;51.988;5.910;2023-04-08T08:35:18;16.08;;;12.73;;
47513;SDS011;33951;51.988;5.910;2023-04-08T08:38:14;13.55;;;12.15;;
47513;SDS011;33951;51.988;5.910;2023-04-08T08:41:00;17.83;;;12.85;;
47513;SDS011;33951;51.988;5.910;2023-04-08T08:43:57;12.57;;;9.48;;
47513;SDS011;33951;51.988;5.910;2023-04-08T08:46:34;12.00;;;9.73;;
47513;SDS011;33951;51.988;5.910;2023-04-08T08:49:54;13.65;;;10.57;;
47513;SDS011;33951;51.988;5.910;2023-04-08T08:52:46;17.70;;;12.50;;
47513;SDS011;33951;51.988;5.910;2023-04-08T08:55:31;14.50;;;11.88;;
47513;SDS011;33951;51.988;5.910;2023-04-08T08:58:28;16.70;;;12.55;;
47513;SDS011;33951;51.988;5.910;2023-04-08T09:01:28;17.50;;;13.38;;
47513;SDS011;33951;51.988;5.910;2023-04-08T09:04:28;16.52;;;12.90;;
47513;SDS011;33951;51.988;5.910;2023-04-08T09:07:23;15.68;;;12.63;;
47513;SDS011;33951;51.988;5.910;2023-04-08T09:10:50;13.48;;;10.80;;
47513;SDS011;33951;51.988;5.910;2023-04-08T09:16:40;13.98;;;11.82;;
47513;SDS011;33951;51.988;5.910;2023-04-08T09:19:17;13.13;;;11.13;;
47513;SDS011;33951;51.988;5.910;2023-04-08T09:21:47;13.98;;;11.68;;
47513;SDS011;33951;51.988;5.910;2023-04-08T09:24:52;14.90;;;11.13;;
47513;SDS011;33951;51.988;5.910;2023-04-08T09:34:24;16.02;;;11.50;;
47513;SDS011;33951;51.988;5.910;2023-04-08T09:37:04;15.25;;;12.65;;
47513;SDS011;33951;51.988;5.910;2023-04-08T09:40:31;15.73;;;12.07;;
47513;SDS011;33951;51.988;5.910;2023-04-08T09:43:29;18.45;;;12.52;;
47513;SDS011;33951;51.988;5.910;2023-04-08T09:49:32;16.60;;;12.63;;
47513;SDS011;33951;51.988;5.910;2023-04-08T09:55:03;13.52;;;10.93;;
47513;SDS011;33951;51.988;5.910;2023-04-08T10:00:49;13.85;;;11.13;;
47513;SDS011;33951;51.988;5.910;2023-04-08T10:03:29;15.15;;;10.80;;
47513;SDS011;33951;51.988;5.910;2023-04-08T10:06:39;14.02;;;10.27;;
47513;SDS011;33951;51.988;5.910;2023-04-08T10:09:29;13.32;;;11.18;;
47513;SDS011;33951;51.988;5.910;2023-04-08T10:12:43;13.23;;;10.70;;
47513;SDS011;33951;51.988;5.910;2023-04-08T10:15:33;11.98;;;10.68;;
47513;SDS011;33951;51.988;5.910;2023-04-08T10:24:07;11.85;;;9.55;;
47513;SDS011;33951;51.988;5.910;2023-04-08T10:26:45;11.65;;;9.63;;
47513;SDS011;33951;51.988;5.910;2023-04-08T10:35:10;12.00;;;9.75;;
47513;SDS011;33951;51.988;5.910;2023-04-08T10:38:10;12.60;;;9.20;;
47513;SDS011;33951;51.988;5.910;2023-04-08T10:41:03;14.02;;;10.35;;
47513;SDS011;33951;51.988;5.910;2023-04-08T10:43:40;10.55;;;9.07;;
47513;SDS011;33951;51.988;5.910;2023-04-08T10:46:11;12.55;;;10.82;;
47513;SDS011;33951;51.988;5.910;2023-04-08T10:52:19;11.70;;;8.88;;
47513;SDS011;33951;51.988;5.910;2023-04-08T10:57:45;9.93;;;8.18;;
47513;SDS011;33951;51.988;5.910;2023-04-08T11:00:35;12.70;;;8.23;;
47513;SDS011;33951;51.988;5.910;2023-04-08T11:03:10;10.65;;;8.48;;
47513;SDS011;33951;51.988;5.910;2023-04-08T11:11:55;9.60;;;7.25;;
47513;SDS011;33951;51.988;5.910;2023-04-08T11:14:23;10.50;;;8.43;;
47513;SDS011;33951;51.988;5.910;2023-04-08T11:19:41;9.55;;;8.57;;
47513;SDS011;33951;51.988;5.910;2023-04-08T11:25:02;8.93;;;7.80;;
47513;SDS011;33951;51.988;5.910;2023-04-08T11:27:59;9.80;;;7.63;;
47513;SDS011;33951;51.988;5.910;2023-04-08T11:30:28;9.77;;;7.32;;
47513;SDS011;33951;51.988;5.910;2023-04-08T11:36:31;10.02;;;7.78;;
47513;SDS011;33951;51.988;5.910;2023-04-08T14:30:12;13.95;;;10.18;;
47513;SDS011;33951;51.988;5.910;2023-04-08T14:33:01;12.30;;;10.65;;
47513;SDS011;33951;51.988;5.910;2023-04-08T14:35:38;12.68;;;10.27;;
47513;SDS011;33951;51.988;5.910;2023-04-08T14:38:06;12.82;;;11.02;;
47513;SDS011;33951;51.988;5.910;2023-04-08T14:41:01;12.90;;;10.93;;
47513;SDS011;33951;51.988;5.910;2023-04-08T14:44:16;12.73;;;11.35;;
47513;SDS011;33951;51.988;5.910;2023-04-08T14:46:59;12.73;;;11.23;;
47513;SDS011;33951;51.988;5.910;2023-04-08T14:49:37;14.23;;;12.10;;
47513;SDS011;33951;51.988;5.910;2023-04-08T14:52:22;13.38;;;11.98;;
47513;SDS011;33951;51.988;5.910;2023-04-08T14:54:57;13.25;;;11.85;;
47513;SDS011;33951;51.988;5.910;2023-04-08T14:57:41;14.45;;;12.18;;
47513;SDS011;33951;51.988;5.910;2023-04-08T15:00:09;15.52;;;12.35;;
47513;SDS011;33951;51.988;5.910;2023-04-08T15:02:38;14.65;;;12.95;;
47513;SDS011;33951;51.988;5.910;2023-04-08T15:05:27;16.02;;;13.02;;
47513;SDS011;33951;51.988;5.910;2023-04-08T15:08:25;14.40;;;12.97;;
47513;SDS011;33951;51.988;5.910;2023-04-08T15:11:14;14.82;;;13.02;;
47513;SDS011;33951;51.988;5.910;2023-04-08T15:13:50;15.52;;;13.63;;
47513;SDS011;33951;51.988;5.910;2023-04-08T15:16:20;16.60;;;13.63;;
47513;SDS011;33951;51.988;5.910;2023-04-08T15:22:05;16.60;;;14.82;;
47513;SDS011;33951;51.988;5.910;2023-04-08T15:24:36;16.70;;;14.90;;
47513;SDS011;33951;51.988;5.910;2023-04-08T15:27:22;19.33;;;15.38;;
47513;SDS011;33951;51.988;5.910;2023-04-08T15:30:08;18.73;;;15.68;;
47513;SDS011;33951;51.988;5.910;2023-04-08T15:33:23;27.52;;;22.73;;
47513;SDS011;33951;51.988;5.910;2023-04-08T15:35:52;16.35;;;14.73;;
47513;SDS011;33951;51.988;5.910;2023-04-08T15:38:37;18.52;;;15.32;;
47513;SDS011;33951;51.988;5.910;2023-04-08T15:41:31;17.08;;;15.30;;
47513;SDS011;33951;51.988;5.910;2023-04-08T15:44:05;17.95;;;14.77;;
47513;SDS011;33951;51.988;5.910;2023-04-08T15:46:33;18.00;;;15.30;;
47513;SDS011;33951;51.988;5.910;2023-04-08T15:49:39;19.25;;;15.82;;
47513;SDS011;33951;51.988;5.910;2023-04-08T15:58:37;27.85;;;22.60;;
47513;SDS011;33951;51.988;5.910;2023-04-08T16:01:34;24.45;;;20.08;;
47513;SDS011;33951;51.988;5.910;2023-04-08T16:04:08;23.45;;;20.52;;
47513;SDS011;33951;51.988;5.910;2023-04-08T16:10:02;21.20;;;18.75;;
47513;SDS011;33951;51.988;5.910;2023-04-08T16:12:27;21.88;;;17.65;;
47513;SDS011;33951;51.988;5.910;2023-04-08T16:14:53;22.17;;;18.63;;
47513;SDS011;33951;51.988;5.910;2023-04-08T16:17:28;21.40;;;16.65;;
47513;SDS011;33951;51.988;5.910;2023-04-08T16:19:58;18.92;;;16.98;;
47513;SDS011;33951;51.988;5.910;2023-04-08T16:22:25;21.83;;;18.45;;
47513;SDS011;33951;51.988;5.910;2023-04-08T16:25:01;19.95;;;17.52;;
47513;SDS011;33951;51.988;5.910;2023-04-08T16:28:06;20.50;;;17.67;;
47513;SDS011;33951;51.988;5.910;2023-04-08T16:31:02;26.98;;;22.55;;
47513;SDS011;33951;51.988;5.910;2023-04-08T16:33:43;29.65;;;23.92;;
47513;SDS011;33951;51.988;5.910;2023-04-08T16:39:06;17.90;;;15.63;;
47513;SDS011;33951;51.988;5.910;2023-04-08T16:41:41;18.20;;;15.43;;
47513;SDS011;33951;51.988;5.910;2023-04-08T16:44:31;16.98;;;15.18;;
47513;SDS011;33951;51.988;5.910;2023-04-08T16:47:07;18.42;;;16.52;;
47513;SDS011;33951;51.988;5.910;2023-04-08T16:50:09;17.65;;;15.95;;
47513;SDS011;33951;51.988;5.910;2023-04-08T16:52:59;37.00;;;29.95;;
47513;SDS011;33951;51.988;5.910;2023-04-08T16:55:43;21.92;;;17.67;;
47513;SDS011;33951;51.988;5.910;2023-04-08T16:58:34;25.05;;;18.58;;
47513;SDS011;33951;51.988;5.910;2023-04-08T17:07:04;17.45;;;15.23;;
47513;SDS011;33951;51.988;5.910;2023-04-08T17:09:52;20.95;;;16.55;;
47513;SDS011;33951;51.988;5.910;2023-04-08T17:12:21;25.42;;;18.30;;
47513;SDS011;33951;51.988;5.910;2023-04-08T17:14:51;24.17;;;17.70;;
47513;SDS011;33951;51.988;5.910;2023-04-08T17:17:27;24.40;;;16.85;;
47513;SDS011;33951;51.988;5.910;2023-04-08T17:20:09;17.75;;;15.52;;
47513;SDS011;33951;51.988;5.910;2023-04-08T17:23:02;17.70;;;15.70;;
47513;SDS011;33951;51.988;5.910;2023-04-08T17:28:43;17.35;;;15.50;;
47513;SDS011;33951;51.988;5.910;2023-04-08T17:31:42;17.90;;;15.82;;
47513;SDS011;33951;51.988;5.910;2023-04-08T17:34:48;22.67;;;20.23;;
47513;SDS011;33951;51.988;5.910;2023-04-08T17:37:23;19.30;;;16.55;;
47513;SDS011;33951;51.988;5.910;2023-04-08T17:40:18;19.77;;;16.85;;
47513;SDS011;33951;51.988;5.910;2023-04-08T17:42:53;20.92;;;18.48;;
47513;SDS011;33951;51.988;5.910;2023-04-08T17:45:39;21.33;;;17.48;;
47513;SDS011;33951;51.988;5.910;2023-04-08T17:51:27;23.63;;;19.77;;
47513;SDS011;33951;51.988;5.910;2023-04-08T17:57:40;20.00;;;17.38;;
47513;SDS011;33951;51.988;5.910;2023-04-08T18:00:23;19.40;;;17.38;;
47513;SDS011;33951;51.988;5.910;2023-04-08T18:02:50;20.27;;;18.13;;
47513;SDS011;33951;51.988;5.910;2023-04-08T18:05:19;20.50;;;17.98;;
47513;SDS011;33951;51.988;5.910;2023-04-08T18:07:45;23.55;;;19.30;;
47513;SDS011;33951;51.988;5.910;2023-04-08T18:10:11;20.65;;;17.92;;
47513;SDS011;33951;51.988;5.910;2023-04-08T18:12:37;19.40;;;17.35;;
47513;SDS011;33951;51.988;5.910;2023-04-08T18:15:02;21.33;;;18.73;;
47513;SDS011;33951;51.988;5.910;2023-04-08T18:17:28;21.73;;;17.30;;
47513;SDS011;33951;51.988;5.910;2023-04-08T18:19:57;21.33;;;18.40;;
47513;SDS011;33951;51.988;5.910;2023-04-08T18:22:23;21.50;;;18.25;;
47513;SDS011;33951;51.988;5.910;2023-04-08T18:24:48;22.95;;;18.17;;
47513;SDS011;33951;51.988;5.910;2023-04-08T18:27:14;24.02;;;19.00;;
47513;SDS011;33951;51.988;5.910;2023-04-08T18:29:41;21.55;;;19.10;;
47513;SDS011;33951;51.988;5.910;2023-04-08T18:32:06;22.63;;;18.73;;
47513;SDS011;33951;51.988;5.910;2023-04-08T18:34:34;23.73;;;19.42;;
47513;SDS011;33951;51.988;5.910;2023-04-08T18:37:00;23.05;;;19.77;;
47513;SDS011;33951;51.988;5.910;2023-04-08T18:39:25;24.65;;;20.75;;
47513;SDS011;33951;51.988;5.910;2023-04-08T18:41:51;24.92;;;21.30;;
47513;SDS011;33951;51.988;5.910;2023-04-08T18:44:17;26.23;;;22.27;;
47513;SDS011;33951;51.988;5.910;2023-04-08T18:46:42;30.10;;;22.48;;
47513;SDS011;33951;51.988;5.910;2023-04-08T18:49:09;24.33;;;21.08;;
47513;SDS011;33951;51.988;5.910;2023-04-08T18:51:35;25.80;;;21.33;;
47513;SDS011;33951;51.988;5.910;2023-04-08T18:54:00;27.02;;;21.50;;
47513;SDS011;33951;51.988;5.910;2023-04-08T18:56:26;27.05;;;21.63;;
47513;SDS011;33951;51.988;5.910;2023-04-08T18:58:52;26.65;;;21.98;;
47513;SDS011;33951;51.988;5.910;2023-04-08T19:01:18;27.00;;;21.80;;
47513;SDS011;33951;51.988;5.910;2023-04-08T19:03:44;24.90;;;20.98;;
47513;SDS011;33951;51.988;5.910;2023-04-08T19:06:10;23.77;;;21.08;;
47513;SDS011;33951;51.988;5.910;2023-04-08T19:08:37;24.55;;;20.50;;
47513;SDS011;33951;51.988;5.910;2023-04-08T19:11:03;25.17;;;21.52;;
47513;SDS011;33951;51.988;5.910;2023-04-08T19:13:29;26.10;;;20.55;;
47513;SDS011;33951;51.988;5.910;2023-04-08T19:16:02;25.67;;;21.83;;
47513;SDS011;33951;51.988;5.910;2023-04-08T19:18:27;28.73;;;24.33;;
47513;SDS011;33951;51.988;5.910;2023-04-08T19:20:53;33.05;;;25.23;;
47513;SDS011;33951;51.988;5.910;2023-04-08T19:23:21;31.55;;;25.65;;
47513;SDS011;33951;51.988;5.910;2023-04-08T19:25:47;33.78;;;23.83;;
47513;SDS011;33951;51.988;5.910;2023-04-08T19:28:12;32.15;;;24.98;;
47513;SDS011;33951;51.988;5.910;2023-04-08T19:30:38;31.70;;;25.80;;
47513;SDS011;33951;51.988;5.910;2023-04-08T19:33:05;31.42;;;26.08;;
47513;SDS011;33951;51.988;5.910;2023-04-08T19:35:32;33.15;;;26.83;;
47513;SDS011;33951;51.988;5.910;2023-04-08T19:37:58;37.42;;;28.45;;
47513;SDS011;33951;51.988;5.910;2023-04-08T19:40:24;35.53;;;27.55;;
47513;SDS011;33951;51.988;5.910;2023-04-08T19:42:50;38.47;;;30.20;;
47513;SDS011;33951;51.988;5.910;2023-04-08T19:45:15;44.25;;;31.00;;
47513;SDS011;33951;51.988;5.910;2023-04-08T19:47:41;42.22;;;29.90;;
47513;SDS011;33951;51.988;5.910;2023-04-08T19:50:08;66.97;;;48.42;;
47513;SDS011;33951;51.988;5.910;2023-04-08T19:52:36;36.75;;;29.30;;
47513;SDS011;33951;51.988;5.910;2023-04-08T19:55:04;46.13;;;33.00;;
47513;SDS011;33951;51.988;5.910;2023-04-08T19:57:30;39.95;;;29.67;;
47513;SDS011;33951;51.988;5.910;2023-04-08T19:59:56;42.53;;;31.13;;
47513;SDS011;33951;51.988;5.910;2023-04-08T20:02:22;42.72;;;31.83;;
47513;SDS011;33951;51.988;5.910;2023-04-08T20:04:48;39.83;;;29.67;;
47513;SDS011;33951;51.988;5.910;2023-04-08T20:07:15;43.90;;;31.73;;
47513;SDS011;33951;51.988;5.910;2023-04-08T20:09:40;43.28;;;31.75;;
47513;SDS011;33951;51.988;5.910;2023-04-08T20:12:06;47.13;;;34.13;;
47513;SDS011;33951;51.988;5.910;2023-04-08T20:14:33;61.78;;;41.10;;
47513;SDS011;33951;51.988;5.910;2023-04-08T20:17:01;53.78;;;38.58;;
47513;SDS011;33951;51.988;5.910;2023-04-08T20:19:28;47.95;;;33.92;;
47513;SDS011;33951;51.988;5.910;2023-04-08T20:21:54;42.67;;;32.67;;
47513;SDS011;33951;51.988;5.910;2023-04-08T20:24:22;42.33;;;29.58;;
47513;SDS011;33951;51.988;5.910;2023-04-08T20:26:50;40.80;;;30.45;;
47513;SDS011;33951;51.988;5.910;2023-04-08T20:29:19;39.53;;;29.48;;
47513;SDS011;33951;51.988;5.910;2023-04-08T20:31:45;41.88;;;30.25;;
47513;SDS011;33951;51.988;5.910;2023-04-08T20:34:11;39.55;;;28.30;;
47513;SDS011;33951;51.988;5.910;2023-04-08T20:36:36;40.35;;;29.40;;
47513;SDS011;33951;51.988;5.910;2023-04-08T21:03:05;40.30;;;29.05;;
47513;SDS011;33951;51.988;5.910;2023-04-08T21:27:34;45.38;;;31.40;;
47513;SDS011;33951;51.988;5.910;2023-04-08T21:29:59;42.50;;;29.63;;
47513;SDS011;33951;51.988;5.910;2023-04-08T21:32:25;47.05;;;32.08;;
47513;SDS011;33951;51.988;5.910;2023-04-08T21:34:54;47.28;;;31.83;;
47513;SDS011;33951;51.988;5.910;2023-04-08T21:37:19;51.13;;;31.73;;
47513;SDS011;33951;51.988;5.910;2023-04-08T21:39:46;82.90;;;56.70;;
47513;SDS011;33951;51.988;5.910;2023-04-08T21:42:12;47.08;;;33.00;;
47513;SDS011;33951;51.988;5.910;2023-04-08T21:44:38;53.83;;;35.67;;
47513;SDS011;33951;51.988;5.910;2023-04-08T21:47:03;48.78;;;34.05;;
47513;SDS011;33951;51.988;5.910;2023-04-08T21:49:29;50.17;;;32.63;;
47513;SDS011;33951;51.988;5.910;2023-04-08T21:51:55;44.75;;;31.08;;
47513;SDS011;33951;51.988;5.910;2023-04-08T21:54:21;51.35;;;34.47;;
47513;SDS011;33951;51.988;5.910;2023-04-08T21:56:47;47.58;;;33.00;;
47513;SDS011;33951;51.988;5.910;2023-04-08T21:59:13;57.03;;;36.30;;
47513;SDS011;33951;51.988;5.910;2023-04-08T22:01:39;48.90;;;33.60;;
47513;SDS011;33951;51.988;5.910;2023-04-08T22:04:05;50.05;;;31.58;;
47513;SDS011;33951;51.988;5.910;2023-04-08T22:06:30;52.53;;;34.00;;
47513;SDS011;33951;51.988;5.910;2023-04-08T22:08:58;49.35;;;33.85;;
47513;SDS011;33951;51.988;5.910;2023-04-08T22:11:24;57.65;;;36.65;;
47513;SDS011;33951;51.988;5.910;2023-04-08T22:13:49;46.10;;;32.50;;
47513;SDS011;33951;51.988;5.910;2023-04-08T22:16:15;48.42;;;32.28;;
47513;SDS011;33951;51.988;5.910;2023-04-08T22:18:41;66.55;;;41.92;;
47513;SDS011;33951;51.988;5.910;2023-04-08T22:21:06;50.55;;;32.97;;
47513;SDS011;33951;51.988;5.910;2023-04-08T22:23:32;50.38;;;31.17;;
47513;SDS011;33951;51.988;5.910;2023-04-08T22:25:58;46.35;;;31.63;;
47513;SDS011;33951;51.988;5.910;2023-04-08T22:28:23;44.42;;;29.83;;
47513;SDS011;33951;51.988;5.910;2023-04-08T22:30:49;47.33;;;32.55;;
47513;SDS011;33951;51.988;5.910;2023-04-08T22:33:15;44.20;;;31.52;;
47513;SDS011;33951;51.988;5.910;2023-04-08T22:35:41;44.75;;;30.63;;
47513;SDS011;33951;51.988;5.910;2023-04-08T22:38:06;46.05;;;31.73;;
47513;SDS011;33951;51.988;5.910;2023-04-08T22:40:35;47.88;;;30.98;;
47513;SDS011;33951;51.988;5.910;2023-04-08T22:43:04;44.85;;;30.23;;
47513;SDS011;33951;51.988;5.910;2023-04-08T22:45:29;46.65;;;31.58;;
47513;SDS011;33951;51.988;5.910;2023-04-08T22:47:55;45.17;;;31.23;;
47513;SDS011;33951;51.988;5.910;2023-04-08T22:50:21;44.00;;;30.30;;
47513;SDS011;33951;51.988;5.910;2023-04-08T22:52:52;44.47;;;30.13;;
47513;SDS011;33951;51.988;5.910;2023-04-08T22:55:40;45.85;;;31.80;;
47513;SDS011;33951;51.988;5.910;2023-04-08T22:58:28;42.72;;;28.92;;
47513;SDS011;33951;51.988;5.910;2023-04-08T23:01:33;46.15;;;31.30;;
47513;SDS011;33951;51.988;5.910;2023-04-08T23:04:19;39.03;;;27.60;;
47513;SDS011;33951;51.988;5.910;2023-04-08T23:06:52;46.95;;;30.77;;
47513;SDS011;33951;51.988;5.910;2023-04-08T23:09:21;47.60;;;30.67;;
47513;SDS011;33951;51.988;5.910;2023-04-08T23:15:01;38.55;;;28.42;;
47513;SDS011;33951;51.988;5.910;2023-04-08T23:17:52;41.75;;;30.38;;
47513;SDS011;33951;51.988;5.910;2023-04-08T23:20:38;38.63;;;28.02;;
47513;SDS011;33951;51.988;5.910;2023-04-08T23:23:13;40.55;;;29.13;;
47513;SDS011;33951;51.988;5.910;2023-04-08T23:26:10;35.38;;;27.42;;
47513;SDS011;33951;51.988;5.910;2023-04-08T23:29:08;37.47;;;27.20;;
47513;SDS011;33951;51.988;5.910;2023-04-08T23:31:36;37.72;;;27.95;;
47513;SDS011;33951;51.988;5.910;2023-04-08T23:34:13;40.08;;;27.73;;
47513;SDS011;33951;51.988;5.910;2023-04-08T23:36:58;40.00;;;28.27;;
47513;SDS011;33951;51.988;5.910;2023-04-08T23:39:48;38.60;;;27.58;;
47513;SDS011;33951;51.988;5.910;2023-04-08T23:45:45;42.20;;;29.10;;
47513;SDS011;33951;51.988;5.910;2023-04-08T23:48:29;43.90;;;30.13;;
47513;SDS011;33951;51.988;5.910;2023-04-08T23:51:27;38.33;;;27.80;;
47513;SDS011;33951;51.988;5.910;2023-04-08T23:53:55;41.53;;;28.60;;
47513;SDS011;33951;51.988;5.910;2023-04-08T23:57:05;40.28;;;28.73;;
47513;SDS011;33951;51.988;5.910;2023-04-08T23:59:37;39.42;;;27.40;;
